createdAt,value
2023-04-18T00:01:23.539Z,9.73
2023-04-18T00:03:50.953Z,9.93
2023-04-18T00:06:17.882Z,9.90
2023-04-18T00:08:44.514Z,9.85
2023-04-18T00:11:11.134Z,9.82
2023-04-18T00:13:39.364Z,9.45
2023-04-18T00:16:08.025Z,9.68
2023-04-18T00:18:37.001Z,8.82
2023-04-18T00:21:04.456Z,10.10
2023-04-18T00:23:34.267Z,9.23
2023-04-18T00:26:01.413Z,9.02
2023-04-18T00:28:28.234Z,8.68
2023-04-18T00:30:55.038Z,10.07
2023-04-18T00:33:21.810Z,9.60
2023-04-18T00:35:51.673Z,8.90
2023-04-18T00:38:18.291Z,9.98
2023-04-18T00:40:44.954Z,9.35
2023-04-18T00:43:14.840Z,10.40
2023-04-18T00:45:41.627Z,10.80
2023-04-18T00:48:09.316Z,9.77
2023-04-18T00:50:37.862Z,9.25
2023-04-18T00:53:04.778Z,10.30
2023-04-18T00:55:31.516Z,10.55
2023-04-18T00:57:58.490Z,9.57
2023-04-18T01:00:25.675Z,9.57
2023-04-18T01:02:55.804Z,10.65
2023-04-18T01:05:23.317Z,10.40
2023-04-18T01:07:50.445Z,10.55
2023-04-18T01:10:17.098Z,9.75
2023-04-18T01:12:44.720Z,10.13
2023-04-18T01:15:11.737Z,9.88
2023-04-18T01:17:39.813Z,9.55
2023-04-18T01:20:07.460Z,10.38
2023-04-18T01:22:34.244Z,10.38
2023-04-18T01:25:00.888Z,9.98
2023-04-18T01:27:27.733Z,11.30
2023-04-18T01:29:54.466Z,10.35
2023-04-18T01:32:21.976Z,9.85
2023-04-18T01:34:48.727Z,9.77
2023-04-18T01:37:15.506Z,10.93
2023-04-18T01:39:42.122Z,10.52
2023-04-18T01:42:08.778Z,10.88
2023-04-18T01:44:37.329Z,10.93
2023-04-18T01:47:05.030Z,11.13
2023-04-18T01:49:32.798Z,9.88
2023-04-18T01:51:59.393Z,11.70
2023-04-18T01:54:26.035Z,11.45
2023-04-18T01:56:52.601Z,10.82
2023-04-18T01:59:19.268Z,11.10
2023-04-18T02:01:46.147Z,11.60
2023-04-18T02:04:13.347Z,11.55
2023-04-18T02:06:40.289Z,9.80
2023-04-18T02:09:06.911Z,10.63
2023-04-18T02:11:33.546Z,10.65
2023-04-18T02:14:02.982Z,11.15
2023-04-18T02:16:30.788Z,10.75
2023-04-18T02:18:57.814Z,11.27
2023-04-18T02:21:24.478Z,10.77
2023-04-18T02:23:51.175Z,11.57
2023-04-18T02:26:21.540Z,11.23
2023-04-18T02:28:48.144Z,10.15
2023-04-18T02:31:15.609Z,11.98
2023-04-18T02:33:43.354Z,11.35
2023-04-18T02:36:11.868Z,11.52
2023-04-18T02:38:38.800Z,11.45
2023-04-18T02:41:05.478Z,10.73
2023-04-18T02:43:33.016Z,9.90
2023-04-18T02:46:01.993Z,10.35
2023-04-18T02:48:28.763Z,11.00
2023-04-18T02:51:03.262Z,11.48
2023-04-18T02:53:32.026Z,10.88
2023-04-18T02:55:59.328Z,10.50
2023-04-18T02:58:36.382Z,10.68
2023-04-18T03:01:24.215Z,10.43
2023-04-18T03:03:58.564Z,10.30
2023-04-18T03:06:43.826Z,10.73
2023-04-18T03:09:11.016Z,10.07
2023-04-18T03:11:43.808Z,10.60
2023-04-18T03:14:11.072Z,10.43
2023-04-18T03:16:48.008Z,10.68
2023-04-18T03:19:18.846Z,10.32
2023-04-18T03:21:45.878Z,10.45
2023-04-18T03:24:12.539Z,10.77
2023-04-18T03:26:40.896Z,10.35
2023-04-18T03:29:08.288Z,9.65
2023-04-18T03:31:34.940Z,10.88
2023-04-18T03:34:01.525Z,10.85
2023-04-18T03:36:28.793Z,10.73
2023-04-18T03:38:55.883Z,11.02
2023-04-18T03:41:23.992Z,10.07
2023-04-18T03:43:50.712Z,10.93
2023-04-18T03:46:17.445Z,11.23
2023-04-18T03:48:44.992Z,9.98
2023-04-18T03:51:12.014Z,10.77
2023-04-18T03:53:39.171Z,9.85
2023-04-18T03:56:06.031Z,10.60
2023-04-18T03:58:52.885Z,11.23
2023-04-18T04:01:21.613Z,10.35
2023-04-18T04:03:50.756Z,11.10
2023-04-18T04:06:17.762Z,10.55
2023-04-18T04:08:44.834Z,10.70
2023-04-18T04:11:12.041Z,11.32
2023-04-18T04:13:39.341Z,11.02
2023-04-18T04:16:07.141Z,10.82
2023-04-18T04:18:34.046Z,10.73
2023-04-18T04:21:03.142Z,10.50
2023-04-18T04:23:42.042Z,9.23
2023-04-18T04:26:11.484Z,10.82
2023-04-18T04:28:46.531Z,10.82
2023-04-18T04:31:16.715Z,10.43
2023-04-18T04:33:43.674Z,10.23
2023-04-18T04:36:18.844Z,11.82
2023-04-18T04:38:47.868Z,11.18
2023-04-18T04:41:15.623Z,9.80
2023-04-18T04:43:42.850Z,11.38
2023-04-18T04:46:14.737Z,10.88
2023-04-18T04:48:42.754Z,10.63
2023-04-18T04:51:09.260Z,11.95
2023-04-18T04:53:35.839Z,10.95
2023-04-18T04:56:04.730Z,10.98
2023-04-18T04:58:33.418Z,11.10
2023-04-18T05:01:07.986Z,11.05
2023-04-18T05:03:38.960Z,10.85
2023-04-18T05:06:06.025Z,10.77
2023-04-18T05:08:32.548Z,10.70
2023-04-18T05:10:59.301Z,10.90
2023-04-18T05:13:25.921Z,11.55
2023-04-18T05:15:52.596Z,10.93
2023-04-18T05:18:20.767Z,9.80
2023-04-18T05:20:47.352Z,10.77
2023-04-18T05:23:13.938Z,10.80
2023-04-18T05:25:40.706Z,10.23
2023-04-18T05:28:08.525Z,9.95
2023-04-18T05:30:35.335Z,10.07
2023-04-18T05:33:01.948Z,10.77
2023-04-18T05:35:29.650Z,11.02
2023-04-18T05:37:56.286Z,10.82
2023-04-18T05:40:23.014Z,9.95
2023-04-18T05:42:49.578Z,10.50
2023-04-18T05:45:16.340Z,9.88
2023-04-18T05:47:43.010Z,10.40
2023-04-18T05:50:09.834Z,10.25
2023-04-18T05:52:38.876Z,9.70
2023-04-18T05:55:06.798Z,10.73
2023-04-18T05:57:33.456Z,11.05
2023-04-18T06:00:00.047Z,10.23
2023-04-18T06:02:27.021Z,10.05
2023-04-18T06:04:54.727Z,9.95
2023-04-18T06:07:23.304Z,10.15
2023-04-18T06:09:50.013Z,9.98
2023-04-18T06:12:16.666Z,9.95
2023-04-18T06:14:43.205Z,10.10
2023-04-18T06:17:12.492Z,10.63
2023-04-18T06:19:39.606Z,9.68
2023-04-18T06:22:06.354Z,9.07
2023-04-18T06:24:32.981Z,10.90
2023-04-18T06:26:59.725Z,10.25
2023-04-18T06:29:30.205Z,10.20
2023-04-18T06:31:58.088Z,9.90
2023-04-18T06:34:24.922Z,10.43
2023-04-18T06:36:52.322Z,10.25
2023-04-18T06:39:19.040Z,9.68
2023-04-18T06:41:45.748Z,10.10
2023-04-18T06:44:19.596Z,9.63
2023-04-18T06:46:46.404Z,9.57
2023-04-18T06:49:13.076Z,8.98
2023-04-18T06:51:39.752Z,9.35
2023-04-18T06:54:06.323Z,8.60
2023-04-18T06:56:36.213Z,8.63
2023-04-18T06:59:03.188Z,8.10
2023-04-18T07:01:33.030Z,8.07
2023-04-18T07:04:00.868Z,8.15
2023-04-18T07:06:27.611Z,7.57
2023-04-18T07:08:59.880Z,7.78
2023-04-18T07:11:26.864Z,7.80
2023-04-18T07:13:53.878Z,7.07
2023-04-18T07:16:20.932Z,6.90
2023-04-18T07:18:47.585Z,7.30
2023-04-18T07:21:14.216Z,7.65
2023-04-18T07:23:40.892Z,7.65
2023-04-18T07:26:09.414Z,7.15
2023-04-18T07:28:36.209Z,7.07
2023-04-18T07:31:04.586Z,6.75
2023-04-18T07:33:33.590Z,6.70
2023-04-18T07:36:01.416Z,7.05
2023-04-18T07:38:28.552Z,6.90
2023-04-18T07:40:59.914Z,7.07
2023-04-18T07:43:27.113Z,6.40
2023-04-18T07:45:54.836Z,6.57
2023-04-18T07:48:22.526Z,6.35
2023-04-18T07:50:49.561Z,6.72
2023-04-18T07:53:16.404Z,5.80
2023-04-18T07:55:45.851Z,6.75
2023-04-18T07:58:12.977Z,6.05
2023-04-18T08:00:39.984Z,6.30
2023-04-18T08:03:13.066Z,6.03
2023-04-18T08:05:41.424Z,6.03
2023-04-18T08:08:09.839Z,6.10
2023-04-18T08:10:36.938Z,5.78
2023-04-18T08:13:03.862Z,6.10
2023-04-18T08:15:32.360Z,6.25
2023-04-18T08:18:00.030Z,6.60
2023-04-18T08:20:26.897Z,5.70
2023-04-18T08:23:06.304Z,5.95
2023-04-18T08:25:36.333Z,5.90
2023-04-18T08:28:04.008Z,6.20
2023-04-18T08:30:31.129Z,6.22
2023-04-18T08:32:58.045Z,6.20
2023-04-18T08:35:25.845Z,5.25
2023-04-18T08:37:52.825Z,5.78
2023-04-18T08:40:20.158Z,5.93
2023-04-18T08:42:46.925Z,5.47
2023-04-18T08:45:14.786Z,5.60
2023-04-18T08:47:42.291Z,5.53
2023-04-18T08:50:10.769Z,5.57
2023-04-18T08:52:39.753Z,5.60
2023-04-18T08:55:07.370Z,5.25
2023-04-18T08:57:35.741Z,5.80
2023-04-18T09:00:08.262Z,5.40
2023-04-18T09:05:18.943Z,4.75
2023-04-18T09:07:46.725Z,5.05
2023-04-18T09:10:13.864Z,4.90
2023-04-18T09:12:50.559Z,5.05
2023-04-18T09:15:20.402Z,5.65
2023-04-18T09:17:53.281Z,5.18
2023-04-18T09:20:35.180Z,5.90
2023-04-18T09:23:14.567Z,5.77
2023-04-18T09:25:46.967Z,6.00
2023-04-18T09:28:27.825Z,6.70
2023-04-18T09:31:14.400Z,6.05
2023-04-18T09:33:52.777Z,5.75
2023-04-18T09:36:31.167Z,6.00
2023-04-18T09:38:57.756Z,6.03
2023-04-18T09:41:24.491Z,5.22
2023-04-18T09:44:11.535Z,6.03
2023-04-18T09:46:40.318Z,5.97
2023-04-18T09:49:09.591Z,5.80
2023-04-18T09:51:39.993Z,5.35
2023-04-18T09:54:08.122Z,5.35
2023-04-18T09:56:37.952Z,5.68
2023-04-18T09:59:09.888Z,5.60
2023-04-18T10:01:37.228Z,6.13
2023-04-18T10:04:06.721Z,5.63
2023-04-18T10:06:34.933Z,5.38
2023-04-18T10:09:04.116Z,5.38
2023-04-18T10:11:32.109Z,5.00
2023-04-18T10:14:03.243Z,4.85
2023-04-18T10:16:30.254Z,5.45
2023-04-18T10:18:58.352Z,4.80
2023-04-18T10:21:26.772Z,4.80
2023-04-18T10:23:53.373Z,4.97
2023-04-18T10:26:20.968Z,4.63
2023-04-18T10:28:57.148Z,4.68
2023-04-18T10:31:26.188Z,5.03
2023-04-18T10:34:05.364Z,4.47
2023-04-18T10:36:32.418Z,5.05
2023-04-18T10:39:21.825Z,4.80
2023-04-18T10:41:50.938Z,5.03
2023-04-18T10:44:22.841Z,5.50
2023-04-18T10:46:53.055Z,5.38
2023-04-18T10:49:21.129Z,5.18
2023-04-18T10:51:58.788Z,5.60
2023-04-18T10:55:07.663Z,5.75
2023-04-18T10:57:56.003Z,6.00
2023-04-18T11:01:15.873Z,6.22
2023-04-18T11:03:43.780Z,6.45
2023-04-18T11:06:10.590Z,6.28
2023-04-18T11:08:37.395Z,6.93
2023-04-18T11:11:06.919Z,7.13
2023-04-18T11:13:33.497Z,5.72
2023-04-18T11:16:01.862Z,6.70
2023-04-18T11:18:40.593Z,6.68
2023-04-18T11:21:07.861Z,6.65
2023-04-18T11:23:34.453Z,7.45
2023-04-18T11:26:01.056Z,7.30
2023-04-18T11:28:28.483Z,6.95
2023-04-18T11:30:59.276Z,6.82
2023-04-18T11:33:28.433Z,6.60
2023-04-18T11:35:59.109Z,7.20
2023-04-18T11:38:33.788Z,7.57
2023-04-18T11:41:02.839Z,7.43
2023-04-18T11:43:29.317Z,7.38
2023-04-18T11:45:58.346Z,7.57
2023-04-18T11:48:37.759Z,7.45
2023-04-18T11:51:05.952Z,7.85
2023-04-18T11:53:37.945Z,7.50
2023-04-18T11:56:05.523Z,7.88
2023-04-18T11:58:34.153Z,7.57
2023-04-18T12:01:24.790Z,7.38
2023-04-18T12:04:08.324Z,7.85
2023-04-18T12:06:52.283Z,7.90
2023-04-18T12:09:21.204Z,8.95
2023-04-18T12:12:01.635Z,8.35
2023-04-18T12:14:29.264Z,8.65
2023-04-18T12:16:56.248Z,9.20
2023-04-18T12:19:27.974Z,8.27
2023-04-18T12:22:06.648Z,9.02
2023-04-18T12:24:33.735Z,9.35
2023-04-18T12:27:00.401Z,8.88
2023-04-18T12:29:28.312Z,8.75
2023-04-18T12:31:55.570Z,9.43
2023-04-18T12:34:22.317Z,10.55
2023-04-18T12:36:48.863Z,11.07
2023-04-18T12:39:15.439Z,10.43
2023-04-18T12:41:42.083Z,10.43
2023-04-18T12:44:09.291Z,10.82
2023-04-18T12:46:37.896Z,10.32
2023-04-18T12:49:04.616Z,11.18
2023-04-18T12:51:31.831Z,10.10
2023-04-18T12:53:59.482Z,11.32
2023-04-18T12:56:26.192Z,11.23
2023-04-18T12:58:55.438Z,11.15
2023-04-18T13:01:22.131Z,10.57
2023-04-18T13:04:03.975Z,11.38
2023-04-18T13:06:35.580Z,11.35
2023-04-18T13:09:02.158Z,10.35
2023-04-18T13:11:29.844Z,10.23
2023-04-18T13:13:56.421Z,12.07
2023-04-18T13:16:23.092Z,12.10
2023-04-18T13:18:49.776Z,11.40
2023-04-18T13:21:16.549Z,13.43
2023-04-18T13:23:43.140Z,11.98
2023-04-18T13:26:09.829Z,13.68
2023-04-18T13:28:36.432Z,13.90
2023-04-18T13:31:03.061Z,13.45
2023-04-18T13:33:29.689Z,14.35
2023-04-18T13:35:56.378Z,14.35
2023-04-18T13:38:23.066Z,14.38
2023-04-18T13:40:53.749Z,13.40
2023-04-18T13:43:27.761Z,14.13
2023-04-18T13:45:54.370Z,14.40
2023-04-18T13:48:21.048Z,14.20
2023-04-18T13:50:48.281Z,13.30
2023-04-18T13:53:16.181Z,13.73
2023-04-18T13:55:42.737Z,13.98
2023-04-18T13:58:10.652Z,14.30
2023-04-18T14:00:37.214Z,13.57
2023-04-18T14:03:04.863Z,12.95
2023-04-18T14:05:31.670Z,14.30
2023-04-18T14:08:02.352Z,15.32
2023-04-18T14:10:29.117Z,13.23
2023-04-18T14:12:55.740Z,14.30
2023-04-18T14:15:22.502Z,13.70
2023-04-18T14:17:49.288Z,13.43
2023-04-18T14:20:19.102Z,12.77
2023-04-18T14:22:46.611Z,12.38
2023-04-18T14:25:13.241Z,11.90
2023-04-18T14:27:40.252Z,11.93
2023-04-18T14:30:08.564Z,12.93
2023-04-18T14:32:35.460Z,12.63
2023-04-18T14:35:07.110Z,13.15
2023-04-18T14:37:33.687Z,13.20
2023-04-18T14:40:01.231Z,13.18
2023-04-18T14:42:29.024Z,12.00
2023-04-18T14:44:56.550Z,12.10
2023-04-18T14:47:24.350Z,12.13
2023-04-18T14:49:51.224Z,12.65
2023-04-18T14:52:18.854Z,12.82
2023-04-18T14:54:45.512Z,12.10
2023-04-18T14:57:12.864Z,12.75
2023-04-18T14:59:39.467Z,11.07
2023-04-18T15:02:06.910Z,10.63
2023-04-18T15:04:33.784Z,12.05
2023-04-18T15:07:00.646Z,12.55
2023-04-18T15:09:27.282Z,12.23
2023-04-18T15:11:54.254Z,12.15
2023-04-18T15:14:21.125Z,13.13
2023-04-18T15:16:50.712Z,12.40
2023-04-18T15:19:18.463Z,11.95
2023-04-18T15:21:45.314Z,12.63
2023-04-18T15:24:12.204Z,12.05
2023-04-18T15:26:39.017Z,12.13
2023-04-18T15:29:05.855Z,11.20
2023-04-18T15:31:32.658Z,12.05
2023-04-18T15:33:59.411Z,12.57
2023-04-18T15:36:26.077Z,12.57
2023-04-18T15:38:52.625Z,12.52
2023-04-18T15:41:19.259Z,11.57
2023-04-18T15:43:46.005Z,12.73
2023-04-18T15:46:12.783Z,11.55
2023-04-18T15:48:39.335Z,12.15
2023-04-18T15:51:06.057Z,12.45
2023-04-18T15:53:32.667Z,11.68
2023-04-18T15:56:01.471Z,12.32
2023-04-18T15:58:30.217Z,12.60
2023-04-18T16:00:57.290Z,12.05
2023-04-18T16:03:24.674Z,12.68
2023-04-18T16:05:51.482Z,11.95
2023-04-18T16:08:18.195Z,11.27
2023-04-18T16:10:45.010Z,11.95
2023-04-18T16:13:11.574Z,11.23
2023-04-18T16:15:44.117Z,12.20
2023-04-18T16:20:38.309Z,11.48
2023-04-18T16:23:04.893Z,11.95
2023-04-18T16:25:31.424Z,12.07
2023-04-18T16:27:58.148Z,11.55
2023-04-18T16:30:24.701Z,11.77
2023-04-18T16:32:51.333Z,10.93
2023-04-18T16:35:18.055Z,11.50
2023-04-18T16:37:44.621Z,11.93
2023-04-18T16:40:11.479Z,11.20
2023-04-18T16:42:38.160Z,10.95
2023-04-18T16:45:05.019Z,10.98
2023-04-18T16:47:31.623Z,11.68
2023-04-18T16:49:58.336Z,11.10
2023-04-18T16:52:25.192Z,11.15
2023-04-18T16:54:52.934Z,11.98
2023-04-18T16:57:19.603Z,10.57
2023-04-18T16:59:46.245Z,11.27
2023-04-18T17:02:12.976Z,9.93
2023-04-18T17:04:39.987Z,11.40
2023-04-18T17:07:06.839Z,10.90
2023-04-18T17:09:33.524Z,10.68
2023-04-18T17:12:00.228Z,11.05
2023-04-18T17:14:26.847Z,10.82
2023-04-18T17:16:53.885Z,9.80
2023-04-18T17:19:23.419Z,10.77
2023-04-18T17:21:50.875Z,10.52
2023-04-18T17:24:18.738Z,10.57
2023-04-18T17:26:46.425Z,10.68
2023-04-18T17:29:13.272Z,10.57
2023-04-18T17:31:40.177Z,12.57
2023-04-18T17:34:06.995Z,11.32
2023-04-18T17:36:33.704Z,10.15
2023-04-18T17:39:06.773Z,10.60
2023-04-18T17:41:39.521Z,10.07
2023-04-18T17:44:08.071Z,10.40
2023-04-18T17:46:34.770Z,10.43
2023-04-18T17:49:01.477Z,10.05
2023-04-18T17:51:29.072Z,9.50
2023-04-18T17:53:55.782Z,10.02
2023-04-18T17:56:22.670Z,10.93
2023-04-18T17:58:49.375Z,9.82
2023-04-18T18:01:24.636Z,9.73
2023-04-18T18:03:53.500Z,9.13
2023-04-18T18:06:20.546Z,9.73
2023-04-18T18:08:47.175Z,8.95
2023-04-18T18:11:13.944Z,8.27
2023-04-18T18:13:40.523Z,8.60
2023-04-18T18:16:07.716Z,9.40
2023-04-18T18:18:34.597Z,8.70
2023-04-18T18:21:01.174Z,8.27
2023-04-18T18:23:27.866Z,8.77
2023-04-18T18:25:54.553Z,7.97
2023-04-18T18:28:21.426Z,8.38
2023-04-18T18:30:48.000Z,9.13
2023-04-18T18:33:15.107Z,8.73
2023-04-18T18:35:41.745Z,9.30
2023-04-18T18:38:08.399Z,9.15
2023-04-18T18:40:35.553Z,9.60
2023-04-18T18:43:02.222Z,8.73
2023-04-18T18:45:29.173Z,8.57
2023-04-18T18:47:56.841Z,8.27
2023-04-18T18:50:23.602Z,9.02
2023-04-18T18:52:50.256Z,9.18
2023-04-18T18:55:16.942Z,9.30
2023-04-18T18:57:43.611Z,9.35
2023-04-18T19:00:11.828Z,9.25
2023-04-18T19:02:39.544Z,9.27
2023-04-18T19:05:07.230Z,9.68
2023-04-18T19:07:33.839Z,9.02
2023-04-18T19:10:01.632Z,9.80
2023-04-18T19:12:29.075Z,8.45
2023-04-18T19:14:55.709Z,10.38
2023-04-18T19:17:24.718Z,9.23
2023-04-18T19:19:52.234Z,9.50
2023-04-18T19:22:18.936Z,9.35
2023-04-18T19:24:46.918Z,9.63
2023-04-18T19:27:13.483Z,9.30
2023-04-18T19:29:40.038Z,9.63
2023-04-18T19:32:07.731Z,9.18
2023-04-18T19:34:34.419Z,9.48
2023-04-18T19:37:01.328Z,9.85
2023-04-18T19:39:28.143Z,9.35
2023-04-18T19:41:54.810Z,10.90
2023-04-18T19:44:21.485Z,9.88
2023-04-18T19:46:48.194Z,10.57
2023-04-18T19:49:15.027Z,9.68
2023-04-18T19:51:41.683Z,9.60
2023-04-18T19:54:08.386Z,9.95
2023-04-18T19:56:35.000Z,9.57
2023-04-18T19:59:01.690Z,8.70
2023-04-18T20:01:28.363Z,8.95
2023-04-18T20:03:58.444Z,9.13
2023-04-18T20:06:26.662Z,9.32
2023-04-18T20:08:56.254Z,9.85
2023-04-18T20:11:22.986Z,9.15
2023-04-18T20:13:52.182Z,9.35
2023-04-18T20:16:18.836Z,9.10
2023-04-18T20:18:47.245Z,9.20
2023-04-18T20:21:14.001Z,8.82
2023-04-18T20:23:42.109Z,9.82
2023-04-18T20:26:11.625Z,8.77
2023-04-18T20:28:38.332Z,9.82
2023-04-18T20:31:05.128Z,8.88
2023-04-18T20:33:31.952Z,10.20
2023-04-18T20:35:58.920Z,8.95
2023-04-18T20:38:29.338Z,8.90
2023-04-18T20:40:57.927Z,8.25
2023-04-18T20:43:24.803Z,9.43
2023-04-18T20:45:51.660Z,8.75
2023-04-18T20:48:18.723Z,9.30
2023-04-18T20:50:51.139Z,10.05
2023-04-18T20:55:48.792Z,9.45
2023-04-18T20:58:15.679Z,9.25
2023-04-18T21:00:43.630Z,9.20
2023-04-18T21:03:14.625Z,9.55
2023-04-18T21:05:43.134Z,10.88
2023-04-18T21:08:10.877Z,10.45
2023-04-18T21:10:37.792Z,10.52
2023-04-18T21:13:04.382Z,9.43
2023-04-18T21:15:30.950Z,9.10
2023-04-18T21:17:57.612Z,9.82
2023-04-18T21:20:24.371Z,9.50
2023-04-18T21:22:51.038Z,10.02
2023-04-18T21:25:18.618Z,10.93
2023-04-18T21:27:48.140Z,9.70
2023-04-18T21:30:15.909Z,9.45
2023-04-18T21:32:42.549Z,9.73
2023-04-18T21:35:10.326Z,9.77
2023-04-18T21:37:37.513Z,9.70
2023-04-18T21:40:04.726Z,10.05
2023-04-18T21:42:31.362Z,10.15
2023-04-18T21:44:58.015Z,9.25
2023-04-18T21:47:25.898Z,10.48
2023-04-18T21:49:52.731Z,11.05
2023-04-18T21:52:19.335Z,10.18
2023-04-18T21:54:45.971Z,10.73
2023-04-18T21:57:12.606Z,9.93
2023-04-18T21:59:39.218Z,10.52
2023-04-18T22:02:06.148Z,9.70
2023-04-18T22:04:34.066Z,9.95
2023-04-18T22:07:00.868Z,9.65
2023-04-18T22:09:27.467Z,9.85
2023-04-18T22:11:56.994Z,11.32
2023-04-18T22:14:24.686Z,10.65
2023-04-18T22:16:51.593Z,10.45
2023-04-18T22:19:19.208Z,10.05
2023-04-18T22:21:46.067Z,10.20
2023-04-18T22:24:13.880Z,10.02
2023-04-18T22:26:40.968Z,10.60
2023-04-18T22:29:07.584Z,11.50
2023-04-18T22:31:34.228Z,9.95
2023-04-18T22:34:00.976Z,10.70
2023-04-18T22:36:27.685Z,11.20
2023-04-18T22:38:54.341Z,9.90
2023-04-18T22:41:20.952Z,10.52
2023-04-18T22:43:47.556Z,11.00
2023-04-18T22:46:15.142Z,10.25
2023-04-18T22:48:41.746Z,10.57
2023-04-18T22:51:08.324Z,11.02
2023-04-18T22:53:35.025Z,10.38
2023-04-18T22:56:01.703Z,10.48
2023-04-18T22:58:28.388Z,10.32
2023-04-18T23:00:55.124Z,10.50
2023-04-18T23:03:21.941Z,10.80
2023-04-18T23:05:48.760Z,9.75
2023-04-18T23:08:15.482Z,10.38
2023-04-18T23:10:42.135Z,10.23
2023-04-18T23:13:10.978Z,9.70
2023-04-18T23:15:37.551Z,10.82
2023-04-18T23:18:04.384Z,10.85
2023-04-18T23:20:31.124Z,10.68
2023-04-18T23:22:57.765Z,10.15
2023-04-18T23:25:24.457Z,10.23
2023-04-18T23:27:51.135Z,10.45
2023-04-18T23:30:17.708Z,10.27
2023-04-18T23:32:44.352Z,10.30
2023-04-18T23:35:13.755Z,10.50
2023-04-18T23:37:42.084Z,11.20
2023-04-18T23:40:09.069Z,10.32
2023-04-18T23:42:36.219Z,10.45
2023-04-18T23:45:04.054Z,11.23
2023-04-18T23:47:30.844Z,11.63
2023-04-18T23:49:57.642Z,10.48
2023-04-18T23:52:24.329Z,11.18
2023-04-18T23:54:52.207Z,10.38
2023-04-18T23:57:18.806Z,10.45
2023-04-18T23:59:45.580Z,10.68
